Terminal Aerodrome Forecast
Issued by NWS

Home | Current Version | Previous Version | Text Only | Print | Product List | Glossary On
Versions: 1 2 3 4 5 6 7 8 9 10 11 12 13 14 15 16 17 18 19
000
FTUS44 KBMX 071720
TAFTOI
TAF
KTOI 071720Z 0718/0818 VRB03KT 5SM BR OVC007
     FM072100 29004KT P6SM OVC015
     FM081200 33005KT P6SM OVC050
     FM081500 35010G15KT P6SM BKN100=

USA.gov is the U.S. government's official web portal to all federal, state and local government web resources and services.